Time;durP1;ratioP1;P1;durP2;ratioP2;P2;SDS_P1;SDS_P2;PMS_P1;PMS_P2;Temp;Humidity;BMP_temperature;BMP_pressure;BME280_temperature;BME280_humidity;BME280_pressure;Samples;Min_cycle;Max_cycle;Signal;HPM_P1;HPM_P2
2023/12/19 00:00:15;;;;;;;;;63.67;46.00;;;;;-1.12;100.00;100894.28;6279212;20;2881696;-44
2023/12/19 00:02:44;;;;;;;;;67.50;49.50;;;;;-1.20;100.00;100896.88;6311396;20;2865940;-44
2023/12/19 00:05:14;;;;;;;;;71.67;50.67;;;;;-1.09;100.00;100893.41;6279259;20;2872248;-45
2023/12/19 00:07:45;;;;;;;;;61.00;48.00;;;;;-0.94;100.00;100877.69;6312745;20;2863850;-48
2023/12/19 00:10:13;;;;;;;;;69.00;47.00;;;;;-1.09;100.00;100888.13;6275239;20;2479619;-44
2023/12/19 00:12:43;;;;;;;;;58.00;44.00;;;;;-0.82;100.00;100884.75;6276518;20;2874232;-43
2023/12/19 00:15:14;;;;;;;;;71.67;46.67;;;;;-1.04;100.00;100886.41;6279630;20;3626301;-47
2023/12/19 00:17:43;;;;;;;;;66.33;44.00;;;;;-1.27;100.00;100892.41;6309582;20;3649254;-43
2023/12/19 00:20:13;;;;;;;;;63.67;43.67;;;;;-1.26;100.00;100888.03;6306954;20;2888922;-45
2023/12/19 00:22:42;;;;;;;;;58.50;45.00;;;;;-0.97;100.00;100901.41;6309604;20;2859643;-44
2023/12/19 00:25:11;;;;;;;;;58.00;36.00;;;;;-1.27;100.00;100900.31;6276832;20;2880594;-43
2023/12/19 00:27:40;;;;;;;;;64.00;44.00;;;;;-1.00;100.00;100896.97;6277232;20;2890972;-49
2023/12/19 00:30:10;;;;;;;;;63.50;45.50;;;;;-0.80;100.00;100897.06;6308766;20;2882552;-49
2023/12/19 00:32:40;;;;;;;;;59.00;39.00;;;;;-0.69;100.00;100900.63;6278660;20;2878577;-44
2023/12/19 00:35:11;;;;;;;;;51.00;39.00;;;;;-0.79;100.00;100901.47;6313366;20;2861743;-45
2023/12/19 00:37:40;;;;;;;;;47.50;39.00;;;;;-0.38;100.00;100906.00;6282593;20;2864877;-45
2023/12/19 00:40:12;;;;;;;;;68.00;42.00;;;;;-0.67;100.00;100901.50;6284019;20;2746286;-45
2023/12/19 00:42:41;;;;;;;;;52.50;40.00;;;;;-0.67;100.00;100906.78;6312866;20;2500244;-46
2023/12/19 00:45:11;;;;;;;;;49.00;36.00;;;;;-0.68;100.00;100906.78;6285655;20;2870009;-45
2023/12/19 00:47:42;;;;;;;;;56.67;46.00;;;;;-0.68;100.00;100902.41;6285099;20;2886796;-46
2023/12/19 00:50:13;;;;;;;;;65.00;46.50;;;;;-0.67;100.00;100908.53;6315215;20;2879449;-44
2023/12/19 00:52:45;;;;;;;;;77.00;51.50;;;;;-0.49;100.00;100903.34;6282901;20;2871083;-46
2023/12/19 00:55:14;;;;;;;;;68.50;47.50;;;;;-0.40;100.00;100894.56;6283820;20;2878431;-44
2023/12/19 00:57:43;;;;;;;;;49.00;40.50;;;;;-0.81;100.00;100895.31;6284137;20;2864858;-44
2023/12/19 01:00:13;;;;;;;;;61.00;47.50;;;;;-0.86;100.00;100890.91;6281249;20;2871082;-44
2023/12/19 01:02:42;;;;;;;;;46.67;34.67;;;;;-0.92;100.00;100886.47;6284814;20;2871460;-46
2023/12/19 01:05:12;;;;;;;;;54.67;32.00;;;;;-0.92;100.00;100889.13;6314475;20;2875300;-45
2023/12/19 01:07:42;;;;;;;;;73.67;43.67;;;;;-1.02;100.00;100888.19;6314413;20;3650327;-43
2023/12/19 01:10:11;;;;;;;;;57.50;44.50;;;;;-1.12;100.00;100895.16;6313297;20;2879462;-43
2023/12/19 01:12:39;;;;;;;;;42.00;36.00;;;;;-0.90;100.00;100890.84;6280832;20;2496139;-45
2023/12/19 01:15:09;;;;;;;;;54.00;38.50;;;;;-0.69;100.00;100891.81;6280936;20;2859668;-44
2023/12/19 01:17:36;;;;;;;;;50.50;34.00;;;;;-1.00;100.00;100890.81;6284252;20;2856531;-43
2023/12/19 01:20:09;;;;;;;;;51.67;43.00;;;;;-1.04;100.00;100884.66;6282746;20;2867961;-45
2023/12/19 01:22:38;;;;;;;;;61.33;43.00;;;;;-0.72;100.00;100891.81;6313428;20;3638826;-44
2023/12/19 01:25:07;;;;;;;;;63.00;48.50;;;;;-0.36;100.00;100883.16;6314544;20;2873395;-44
2023/12/19 01:27:36;;;;;;;;;61.00;37.50;;;;;-0.24;100.00;100892.81;6283659;20;2872228;-44
2023/12/19 01:30:07;;;;;;;;;92.00;67.00;;;;;-0.77;100.00;100891.78;6282334;20;3655529;-44
2023/12/19 01:32:37;;;;;;;;;64.33;44.00;;;;;-1.06;100.00;100886.38;6282441;20;2883900;-44
2023/12/19 01:35:05;;;;;;;;;61.00;49.00;;;;;-0.69;100.00;100879.50;6311235;20;2500337;-45
2023/12/19 01:37:33;;;;;;;;;46.00;42.50;;;;;-0.64;100.00;100874.25;6280087;20;2500328;-46
2023/12/19 01:40:07;;;;;;;;;51.00;39.00;;;;;-0.97;100.00;100873.28;6281972;20;2873237;-45
2023/12/19 01:42:37;;;;;;;;;55.67;38.00;;;;;-1.19;100.00;100868.75;6280204;20;2877539;-46
2023/12/19 01:45:12;;;;;;;;;43.00;34.50;;;;;-0.49;100.00;100865.53;6314824;20;2866944;-49
2023/12/19 01:47:44;;;;;;;;;54.67;39.67;;;;;-0.41;100.00;100858.50;6280144;20;2877447;-44
2023/12/19 01:50:15;;;;;;;;;60.00;43.00;;;;;-0.72;100.00;100847.88;6309503;20;2859701;-44
2023/12/19 01:52:54;;;;;;;;;51.00;40.00;;;;;-0.84;100.00;100839.94;6275519;20;2500309;-44
2023/12/19 01:55:24;;;;;;;;;44.00;37.00;;;;;-0.99;100.00;100842.50;6280157;20;2855504;-43
2023/12/19 01:57:55;;;;;;;;;68.00;41.00;;;;;-1.08;100.00;100834.53;6280356;20;2886743;-43
2023/12/19 02:00:24;;;;;;;;;50.50;42.00;;;;;-1.10;100.00;100839.81;6308903;20;2867982;-43
2023/12/19 02:02:53;;;;;;;;;58.00;38.00;;;;;-1.24;100.00;100836.22;6279315;20;2495104;-45
2023/12/19 02:05:23;;;;;;;;;332.33;268.00;;;;;-1.33;100.00;100837.94;6280291;20;3742958;-44
2023/12/19 02:07:53;;;;;;;;;66.00;48.00;;;;;-1.21;100.00;100831.88;6281008;20;2885685;-47
2023/12/19 02:10:23;;;;;;;;;73.50;52.50;;;;;-0.91;100.00;100832.88;6311435;20;2882541;-46
2023/12/19 02:12:53;;;;;;;;;56.00;43.50;;;;;-1.22;100.00;100822.19;6281996;20;2872239;-45
2023/12/19 02:15:21;;;;;;;;;37.00;30.50;;;;;-1.12;100.00;100826.63;6281852;20;2859620;-45
2023/12/19 02:17:49;;;;;;;;;53.00;43.50;;;;;-0.58;100.00;100828.56;6276347;20;2500242;-44
2023/12/19 02:20:19;;;;;;;;;64.50;44.00;;;;;-1.00;100.00;100830.19;6278224;20;2500360;-44
2023/12/19 02:22:52;;;;;;;;;276.67;205.00;;;;;-0.93;100.00;100824.94;6281444;20;3705525;-46
2023/12/19 02:25:21;;;;;;;;;52.50;35.50;;;;;-0.83;100.00;100820.59;6281145;20;2882649;-44
2023/12/19 02:27:50;;;;;;;;;50.00;38.50;;;;;-0.91;100.00;100830.25;6280881;20;2871181;-45
2023/12/19 02:30:18;;;;;;;;;36.50;25.50;;;;;-1.13;100.00;100824.88;6275566;20;2500277;-46
2023/12/19 02:32:47;;;;;;;;;43.00;33.50;;;;;-0.73;100.00;100832.94;6275785;20;2500305;-45
2023/12/19 02:35:17;;;;;;;;;58.67;40.00;;;;;-1.21;100.00;100820.44;6283366;20;2892045;-46
2023/12/19 02:37:45;;;;;;;;;57.00;45.00;;;;;-1.21;100.00;100820.44;6310049;20;2500359;-44
2023/12/19 02:40:14;;;;;;;;;63.00;47.50;;;;;-1.35;100.00;100813.34;6281064;20;2881929;-47
2023/12/19 02:42:43;;;;;;;;;42.00;29.50;;;;;-0.69;100.00;100821.50;6279440;20;2878429;-45
2023/12/19 02:45:12;;;;;;;;;45.50;33.00;;;;;-0.49;100.00;100813.66;6278424;20;2500268;-45
2023/12/19 02:47:41;;;;;;;;;51.50;42.00;;;;;-0.98;100.00;100823.16;6279747;20;2877355;-44
2023/12/19 02:50:10;;;;;;;;;50.00;36.50;;;;;-0.70;100.00;100811.84;6279810;20;2858731;-45
2023/12/19 02:52:39;;;;;;;;;55.50;43.50;;;;;-0.96;100.00;100811.75;6274400;20;2869061;-45
2023/12/19 02:55:08;;;;;;;;;57.33;36.33;;;;;-1.22;100.00;100810.78;6278671;20;3630489;-46
2023/12/19 02:57:38;;;;;;;;;54.00;41.67;;;;;-1.18;100.00;100804.66;6308370;20;2874250;-46
2023/12/19 03:00:09;;;;;;;;;52.33;34.67;;;;;-1.39;100.00;100811.59;6311805;20;2877469;-46
2023/12/19 03:02:37;;;;;;;;;75.00;52.00;;;;;-1.23;100.00;100819.56;6306415;20;2500328;-47
2023/12/19 03:05:05;;;;;;;;;62.00;47.50;;;;;-1.61;100.00;100828.13;6274603;20;2500429;-44
2023/12/19 03:07:34;;;;;;;;;46.50;29.50;;;;;-1.26;100.00;100819.53;6276341;20;2877446;-44
2023/12/19 03:10:07;;;;;;;;;43.00;35.00;;;;;-0.63;100.00;100815.38;6277054;20;2859644;-47
2023/12/19 03:12:37;;;;;;;;;55.67;39.67;;;;;-0.64;100.00;100797.78;6275641;20;2887787;-45
2023/12/19 03:15:08;;;;;;;;;75.33;50.33;;;;;-0.81;100.00;100795.13;6309565;20;2880605;-44
2023/12/19 03:17:37;;;;;;;;;58.00;41.50;;;;;-0.82;100.00;100790.72;6309541;20;2873358;-44
2023/12/19 03:20:07;;;;;;;;;46.50;35.50;;;;;-0.73;100.00;100780.19;6279367;20;2879423;-47
2023/12/19 03:22:36;;;;;;;;;38.50;32.00;;;;;-0.57;100.00;100790.78;6278341;20;2858698;-45
2023/12/19 03:25:05;;;;;;;;;47.50;36.50;;;;;-0.39;100.00;100782.88;6282436;20;2867971;-49
2023/12/19 03:27:33;;;;;;;;;43.50;28.50;;;;;-0.48;100.00;100780.22;6277747;20;2862795;-44
2023/12/19 03:30:03;;;;;;;;;69.00;44.00;;;;;-0.34;100.00;100775.84;6279000;20;2890064;-46
2023/12/19 03:32:31;;;;;;;;;62.00;42.50;;;;;-0.91;100.00;100775.75;6308005;20;2865867;-45
2023/12/19 03:34:59;;;;;;;;;56.50;43.00;;;;;-1.13;100.00;100798.53;6279046;20;2500463;-46
2023/12/19 03:37:27;;;;;;;;;47.50;40.00;;;;;-0.81;100.00;100800.41;6276873;20;2500520;-45
2023/12/19 03:39:56;;;;;;;;;47.50;39.50;;;;;-1.25;100.00;100793.19;6279269;20;2862764;-45
2023/12/19 03:42:25;;;;;;;;;43.00;35.00;;;;;-0.99;100.00;100795.06;6281451;20;2865867;-45
2023/12/19 03:44:53;;;;;;;;;42.00;36.50;;;;;-0.84;100.00;100784.56;6276945;20;2500292;-48
2023/12/19 03:47:22;;;;;;;;;42.33;31.33;;;;;-0.59;100.00;100774.06;6280541;20;3608848;-47
2023/12/19 03:49:51;;;;;;;;;59.33;38.00;;;;;-0.97;100.00;100782.78;6279443;20;2880477;-46
2023/12/19 03:52:22;;;;;;;;;57.00;44.67;;;;;-1.15;100.00;100781.84;6309369;20;2878388;-47
2023/12/19 03:54:52;;;;;;;;;71.00;47.00;;;;;-0.98;100.00;100781.88;6311703;20;2884767;-46
2023/12/19 03:57:21;;;;;;;;;58.00;36.67;;;;;-1.06;100.00;100777.47;6307687;20;2875410;-45
2023/12/19 03:59:50;;;;;;;;;59.50;41.00;;;;;-1.13;100.00;100776.56;6307399;20;2878514;-46
2023/12/19 04:02:19;;;;;;;;;52.67;35.33;;;;;-0.91;100.00;100756.44;6272982;20;2877504;-49
2023/12/19 04:04:49;;;;;;;;;34.00;29.50;;;;;-1.14;100.00;100759.84;6309045;20;2854525;-45
2023/12/19 04:07:17;;;;;;;;;53.50;41.00;;;;;-0.52;100.00;100766.16;6278207;20;2500388;-45
2023/12/19 04:09:46;;;;;;;;;62.33;44.00;;;;;-0.91;100.00;100783.66;6285269;20;2897253;-44
2023/12/19 04:12:14;;;;;;;;;55.00;43.50;;;;;-0.86;100.00;100788.97;6311803;20;2500398;-45
2023/12/19 04:14:44;;;;;;;;;46.67;42.00;;;;;-1.42;100.00;100779.97;6282312;20;2884783;-47
2023/12/19 04:17:13;;;;;;;;;63.50;46.00;;;;;-1.11;100.00;100775.72;6318124;20;2877358;-50
2023/12/19 04:19:44;;;;;;;;;59.33;39.67;;;;;-1.15;100.00;100773.06;6284499;20;2878427;-49
2023/12/19 04:22:14;;;;;;;;;65.00;43.67;;;;;-1.07;100.00;100779.22;6316398;20;2890425;-48
2023/12/19 04:24:44;;;;;;;;;73.33;50.67;;;;;-0.62;100.00;100789.88;6314248;20;2891024;-48
2023/12/19 04:27:13;;;;;;;;;67.00;41.33;;;;;-0.78;100.00;100783.69;6313841;20;2886831;-46
2023/12/19 04:29:45;;;;;;;;;55.00;38.00;;;;;-0.96;100.00;100780.13;6310976;20;2869250;-47
2023/12/19 04:32:14;;;;;;;;;54.50;38.50;;;;;-0.97;100.00;100790.69;6281688;20;2500354;-47
2023/12/19 04:34:43;;;;;;;;;57.00;41.00;;;;;-1.11;100.00;100790.63;6280858;20;2879461;-46
2023/12/19 04:37:13;;;;;;;;;55.33;44.33;;;;;-1.11;100.00;100790.63;6283717;20;2887824;-47
2023/12/19 04:39:42;;;;;;;;;60.33;44.00;;;;;-0.98;100.00;100786.28;6312078;20;2888856;-45
2023/12/19 04:42:17;;;;;;;;;56.50;39.50;;;;;-1.11;100.00;100785.34;6317204;20;2876390;-47
2023/12/19 04:44:47;;;;;;;;;67.67;48.67;;;;;-0.93;100.00;100780.13;6284067;20;2877439;-45
2023/12/19 04:47:16;;;;;;;;;42.00;38.50;;;;;-0.40;100.00;100796.94;6312412;20;2500514;-47
2023/12/19 04:49:45;;;;;;;;;52.00;43.00;;;;;-0.28;100.00;100812.78;6283081;20;2877485;-45
2023/12/19 04:52:15;;;;;;;;;59.33;43.67;;;;;-0.33;100.00;100822.47;6283531;20;2885786;-45
2023/12/19 04:54:45;;;;;;;;;65.67;42.00;;;;;-0.68;100.00;100833.84;6315545;20;2880623;-45
2023/12/19 04:57:14;;;;;;;;;51.00;38.50;;;;;-0.61;100.00;100820.66;6311439;20;2500319;-48
2023/12/19 04:59:43;;;;;;;;;69.00;46.33;;;;;-0.63;100.00;100815.38;6281224;20;3647115;-47
2023/12/19 05:02:13;;;;;;;;;56.67;39.00;;;;;-1.04;100.00;100817.88;6314913;20;2883691;-47
2023/12/19 05:04:43;;;;;;;;;59.67;42.33;;;;;-1.22;100.00;100819.56;6315166;20;3651310;-48
2023/12/19 05:07:10;;;;;;;;;55.50;37.00;;;;;-0.77;100.00;100812.69;6310802;20;2500896;-47
2023/12/19 05:09:40;;;;;;;;;53.67;42.00;;;;;-0.74;100.00;100803.91;6284331;20;2881572;-45
2023/12/19 05:12:08;;;;;;;;;60.50;42.00;;;;;-0.88;100.00;100798.59;6311715;20;2500320;-48
2023/12/19 05:14:38;;;;;;;;;63.33;42.33;;;;;-0.98;100.00;100791.53;6282001;20;2891002;-46
2023/12/19 05:17:07;;;;;;;;;54.33;43.00;;;;;-0.72;100.00;100787.22;6314835;20;2885755;-45
2023/12/19 05:19:36;;;;;;;;;47.00;43.00;;;;;-0.71;100.00;100786.34;6313542;20;2857668;-45
2023/12/19 05:22:17;;;;;;;;;52.50;40.00;;;;;-0.45;100.00;100789.03;6284180;20;2859790;-45
2023/12/19 05:24:46;;;;;;;;;52.50;40.00;;;;;0.06;100.00;100785.53;6283884;20;2871088;-44
2023/12/19 05:27:16;;;;;;;;;68.67;43.33;;;;;-0.49;100.00;100782.00;6283298;20;3642037;-47
2023/12/19 05:29:45;;;;;;;;;42.00;31.67;;;;;-0.41;100.00;100784.63;6312555;20;3595098;-49
2023/12/19 05:32:13;;;;;;;;;45.00;38.50;;;;;-0.18;100.00;100782.00;6281577;20;2869070;-48
2023/12/19 05:34:41;;;;;;;;;47.50;41.00;;;;;-0.40;100.00;100774.97;6277373;20;2500262;-46
2023/12/19 05:37:10;;;;;;;;;51.00;39.00;;;;;-0.34;100.00;100762.66;6281038;20;2868130;-47
2023/12/19 05:39:41;;;;;;;;;57.00;45.50;;;;;0.00;100.00;100770.56;6280732;20;2865014;-47
2023/12/19 05:42:10;;;;;;;;;59.00;42.50;;;;;-0.24;100.00;100759.16;6284781;20;2899284;-48
2023/12/19 05:44:39;;;;;;;;;47.50;36.50;;;;;-0.82;100.00;100761.69;6283271;20;2874264;-45
2023/12/19 05:47:07;;;;;;;;;45.00;35.50;;;;;-0.43;100.00;100756.50;6282912;20;2865971;-48
2023/12/19 05:49:37;;;;;;;;;62.67;40.67;;;;;-0.09;100.00;100765.28;6280749;20;2875364;-47
2023/12/19 05:52:07;;;;;;;;;51.33;35.67;;;;;-0.93;100.00;100779.25;6315157;20;2878469;-48
2023/12/19 05:54:35;;;;;;;;;49.50;38.00;;;;;-1.18;100.00;100767.78;6311909;20;2870071;-46
2023/12/19 05:57:04;;;;;;;;;36.50;33.00;;;;;-1.02;100.00;100758.16;6284073;20;2851323;-46
2023/12/19 05:59:33;;;;;;;;;54.50;40.00;;;;;-0.68;100.00;100759.13;6282512;20;2885750;-49
2023/12/19 06:02:02;;;;;;;;;60.50;50.00;;;;;-0.92;100.00;100749.41;6282661;20;2847376;-47
2023/12/19 06:04:30;;;;;;;;;65.00;47.50;;;;;-0.97;100.00;100743.25;6280744;20;2500374;-45
2023/12/19 06:06:59;;;;;;;;;49.50;40.00;;;;;-0.04;100.00;100748.56;6283741;20;2859637;-48
2023/12/19 06:09:27;;;;;;;;;42.00;33.50;;;;;-0.23;100.00;100746.81;6281893;20;2864867;-46
2023/12/19 06:11:57;;;;;;;;;53.00;40.50;;;;;-0.60;100.00;100740.66;6283149;20;2872151;-46
2023/12/19 06:14:26;;;;;;;;;42.50;38.50;;;;;-0.60;100.00;100732.75;6280093;20;2846086;-48
2023/12/19 06:16:54;;;;;;;;;32.33;29.33;;;;;-0.92;100.00;100733.59;6281515;20;3577455;-45
2023/12/19 06:19:22;;;;;;;;;43.50;38.00;;;;;-0.70;100.00;100734.50;6280286;20;2500366;-45
2023/12/19 06:21:50;;;;;;;;;57.50;47.50;;;;;-0.52;100.00;100731.00;6280944;20;2502561;-48
2023/12/19 06:24:20;;;;;;;;;53.00;42.67;;;;;-0.58;100.00;100733.63;6282636;20;2883620;-45
2023/12/19 06:26:48;;;;;;;;;43.50;33.00;;;;;-0.98;100.00;100739.69;6311532;20;2500278;-47
2023/12/19 06:29:16;;;;;;;;;51.50;36.50;;;;;-0.39;100.00;100740.69;6281463;20;2878491;-46
2023/12/19 06:31:46;;;;;;;;;53.00;41.67;;;;;-0.64;100.00;100734.50;6281190;20;2882576;-47
2023/12/19 06:34:17;;;;;;;;;64.00;43.33;;;;;-0.87;100.00;100716.00;6312170;20;3635804;-47
2023/12/19 06:36:45;;;;;;;;;51.50;40.00;;;;;-0.02;100.00;100724.81;6312665;20;2861712;-46
2023/12/19 06:39:14;;;;;;;;;48.50;37.50;;;;;-0.04;100.00;100742.41;6281841;20;2859692;-46
2023/12/19 06:41:42;;;;;;;;;32.00;31.50;;;;;-0.47;100.00;100742.44;6279654;20;2500285;-46
2023/12/19 06:44:12;;;;;;;;;55.00;40.50;;;;;-0.02;100.00;100754.72;6282136;20;2877484;-47
2023/12/19 06:46:42;;;;;;;;;70.67;44.33;;;;;-0.09;100.00;100749.44;6279623;20;2889943;-47
2023/12/19 06:49:11;;;;;;;;;49.50;36.50;;;;;-0.80;100.00;100744.13;6313300;20;2878419;-45
2023/12/19 06:51:40;;;;;;;;;44.00;32.50;;;;;-0.55;100.00;100731.88;6281535;20;2875297;-45
2023/12/19 06:54:08;;;;;;;;;52.00;42.50;;;;;-0.26;100.00;100757.38;6281798;20;2875342;-47
2023/12/19 06:56:37;;;;;;;;;68.50;48.00;;;;;-0.59;100.00;100753.84;6280166;20;2860835;-46
2023/12/19 06:59:06;;;;;;;;;51.50;40.00;;;;;-0.95;100.00;100757.28;6278188;20;2869090;-49
2023/12/19 07:01:36;;;;;;;;;68.00;43.00;;;;;-0.89;100.00;100759.97;6282713;20;3625223;-46
2023/12/19 07:04:05;;;;;;;;;50.50;40.50;;;;;-0.25;100.00;100759.13;6308219;20;2500451;-45
2023/12/19 07:06:32;;;;;;;;;42.00;36.00;;;;;-0.27;100.00;100767.03;6278201;20;2500444;-45
2023/12/19 07:09:02;;;;;;;;;48.00;33.50;;;;;-0.65;100.00;100764.38;6278322;20;2871195;-45
2023/12/19 07:11:31;;;;;;;;;52.33;40.00;;;;;-0.85;100.00;100771.38;6279198;20;2883755;-48
2023/12/19 07:14:00;;;;;;;;;50.00;43.00;;;;;-0.60;100.00;100772.31;6306711;20;2751395;-47
2023/12/19 07:16:29;;;;;;;;;50.50;35.50;;;;;-0.44;100.00;100768.81;6309593;20;2871111;-45
2023/12/19 07:19:00;;;;;;;;;61.00;43.00;;;;;-0.58;100.00;100771.44;6281526;20;3631560;-47
2023/12/19 07:21:32;;;;;;;;;49.67;40.00;;;;;-0.52;100.00;100783.75;6312239;20;2866939;-48
2023/12/19 07:24:00;;;;;;;;;56.00;39.50;;;;;-0.68;100.00;100767.91;6308735;20;2500269;-44
2023/12/19 07:26:30;;;;;;;;;59.33;41.33;;;;;-0.69;100.00;100779.31;6279186;20;2896321;-48
2023/12/19 07:28:59;;;;;;;;;42.00;35.00;;;;;-0.40;100.00;100780.22;6309924;20;2500436;-47
2023/12/19 07:31:31;;;;;;;;;758.75;402.25;;;;;-0.50;100.00;100780.25;6279714;20;4522076;-49
2023/12/19 07:34:04;;;;;;;;;431.33;236.00;;;;;-0.07;100.00;100779.38;6279602;20;3721178;-47
2023/12/19 07:36:34;;;;;;;;;56.00;47.00;;;;;0.13;100.00;100769.69;6280115;20;2863887;-47
2023/12/19 07:39:04;;;;;;;;;52.00;42.50;;;;;-0.04;100.00;100761.75;6281071;20;2866973;-46
2023/12/19 07:41:34;;;;;;;;;52.33;38.00;;;;;0.07;100.00;100748.53;6279595;20;2877395;-48
2023/12/19 07:44:09;;;;;;;;;61.00;42.33;;;;;0.08;100.00;100745.03;6310478;20;2869099;-47
2023/12/19 07:46:42;;;;;;;;;53.00;41.00;;;;;-0.01;100.00;100745.03;6310645;20;2865903;-46
2023/12/19 07:49:12;;;;;;;;;50.67;42.33;;;;;-0.20;100.00;100738.91;6281645;20;2872118;-48
2023/12/19 07:51:43;;;;;;;;;60.33;44.67;;;;;0.08;100.00;100750.31;6309814;20;2880509;-49
2023/12/19 07:54:11;;;;;;;;;46.00;38.50;;;;;0.29;100.00;100752.03;6310165;20;2863813;-46
2023/12/19 07:56:43;;;;;;;;;63.50;48.50;;;;;-0.28;100.00;100761.78;6274670;20;2492009;-49
2023/12/19 07:59:14;;;;;;;;;147.75;91.50;;;;;-0.81;100.00;100752.94;6289848;20;4458593;-48
2023/12/19 08:01:51;;;;;;;;;327.75;208.00;;;;;-0.51;100.00;100761.75;6305821;20;4499350;-49
2023/12/19 08:04:20;;;;;;;;;47.50;36.50;;;;;-0.47;100.00;100750.34;6277257;20;2868029;-49
2023/12/19 08:06:48;;;;;;;;;58.00;39.00;;;;;-0.91;100.00;100741.47;6277376;20;3633584;-45
2023/12/19 08:09:18;;;;;;;;;53.67;39.00;;;;;-0.30;100.00;100747.69;6306479;20;2870097;-49
2023/12/19 08:11:49;;;;;;;;;52.67;42.33;;;;;-0.33;100.00;100751.22;6309055;20;2883597;-47
2023/12/19 08:14:18;;;;;;;;;56.00;33.00;;;;;-0.08;100.00;100764.38;6311004;20;3643989;-48
2023/12/19 08:16:48;;;;;;;;;56.50;46.00;;;;;-0.36;100.00;100767.06;6306419;20;2859002;-48
2023/12/19 08:19:16;;;;;;;;;61.00;40.50;;;;;-0.28;100.00;100765.28;6271459;20;2500280;-46
2023/12/19 08:21:54;;;;;;;;;62.67;45.00;;;;;-0.37;100.00;100775.88;6274861;20;2875378;-48
2023/12/19 08:24:23;;;;;;;;;55.00;43.00;;;;;-0.13;100.00;100768.78;6309388;20;2877420;-48
2023/12/19 08:26:52;;;;;;;;;52.00;42.00;;;;;-0.08;100.00;100778.50;6278527;20;2874230;-46
2023/12/19 08:29:21;;;;;;;;;57.00;46.00;;;;;-0.43;100.00;100770.56;6278280;20;2852467;-49
2023/12/19 08:31:50;;;;;;;;;74.50;48.50;;;;;-0.34;100.00;100778.50;6278996;20;2879428;-47
2023/12/19 08:34:20;;;;;;;;;63.67;42.67;;;;;-0.52;100.00;100776.72;6277500;20;2893106;-46
2023/12/19 08:36:50;;;;;;;;;44.33;38.33;;;;;0.35;100.00;100777.56;6309451;20;2859735;-46
2023/12/19 08:39:18;;;;;;;;;44.00;40.00;;;;;0.64;100.00;100782.75;6308214;20;2858630;-46
2023/12/19 08:41:47;;;;;;;;;70.50;56.00;;;;;0.10;100.00;100772.28;6278553;20;2879535;-48
2023/12/19 08:44:15;;;;;;;;;71.00;51.50;;;;;0.35;100.00;100773.13;6275208;20;2495053;-46
2023/12/19 08:46:44;;;;;;;;;62.00;47.00;;;;;0.10;100.00;100768.78;6275412;20;2508745;-47
2023/12/19 08:49:13;;;;;;;;;66.50;46.00;;;;;-0.64;100.00;100771.41;6277898;20;2854483;-46
2023/12/19 08:51:47;;;;;;;;;66.50;50.00;;;;;0.20;100.00;100779.31;6276624;20;2866384;-47
2023/12/19 08:54:16;;;;;;;;;56.67;43.33;;;;;-0.53;100.00;100767.03;6279844;20;2860744;-47
2023/12/19 08:56:45;;;;;;;;;53.50;42.00;;;;;0.39;100.00;100763.44;6315130;20;2865032;-48
2023/12/19 08:59:15;;;;;;;;;60.67;46.00;;;;;0.68;100.00;100770.41;6284942;20;2877372;-47
2023/12/19 09:01:45;;;;;;;;;64.67;45.00;;;;;0.77;100.00;100765.97;6315519;20;2881863;-46
2023/12/19 09:04:14;;;;;;;;;55.50;46.50;;;;;0.47;100.00;100761.66;6315784;20;2861751;-47
2023/12/19 09:06:44;;;;;;;;;38.50;34.00;;;;;-0.31;100.00;100765.28;6284811;20;2863935;-46
2023/12/19 09:09:14;;;;;;;;;59.67;45.67;;;;;-0.37;100.00;100757.41;6285314;20;2878487;-46
2023/12/19 09:11:43;;;;;;;;;95.33;71.33;;;;;-0.03;100.00;100749.44;6316808;20;3658669;-46
2023/12/19 09:14:12;;;;;;;;;34.00;20.33;;;;;-0.02;100.00;100752.09;6318627;20;3570133;-47
2023/12/19 09:16:42;;;;;;;;;66.00;51.50;;;;;0.05;100.00;100746.78;6314896;20;2864903;-48
2023/12/19 09:19:18;;;;;;;;;96.67;68.67;;;;;-0.24;100.00;100743.31;6281664;20;3664807;-47
2023/12/19 09:21:47;;;;;;;;;64.50;48.00;;;;;-0.03;100.00;100730.94;6317400;20;2856542;-47
2023/12/19 09:24:15;;;;;;;;;48.50;38.00;;;;;0.49;100.00;100727.31;6283959;20;2492104;-46
2023/12/19 09:26:45;;;;;;;;;62.67;40.33;;;;;-0.31;100.00;100714.28;6283462;20;3671169;-47
2023/12/19 09:29:14;;;;;;;;;53.00;43.67;;;;;0.31;100.00;100707.13;6312926;20;2875399;-45
2023/12/19 09:31:47;;;;;;;;;57.33;42.33;;;;;0.52;100.00;100707.03;6314178;20;2894267;-46
2023/12/19 09:34:16;;;;;;;;;66.00;51.00;;;;;0.62;100.00;100698.19;6315436;20;2862911;-47
2023/12/19 09:36:46;;;;;;;;;92.00;64.33;;;;;0.22;100.00;100693.06;6281051;20;3666954;-45
2023/12/19 09:39:26;;;;;;;;;164.25;121.25;;;;;-0.09;100.00;100683.47;6282377;20;3714126;-47
2023/12/19 09:41:58;;;;;;;;;99.33;74.67;;;;;0.53;100.00;100677.09;6283114;20;3669030;-46
2023/12/19 09:44:27;;;;;;;;;69.00;53.50;;;;;-0.04;100.00;100666.72;6315382;20;2873208;-47
2023/12/19 09:46:56;;;;;;;;;68.50;49.00;;;;;0.38;100.00;100656.03;6283622;20;2864980;-47
2023/12/19 09:49:25;;;;;;;;;64.00;46.00;;;;;0.74;100.00;100660.25;6280612;20;2495142;-49
2023/12/19 09:51:58;;;;;;;;;94.67;68.00;;;;;0.44;100.00;100650.72;6285035;20;2883805;-48
2023/12/19 09:54:28;;;;;;;;;104.33;73.67;;;;;-0.24;100.00;100650.06;6312623;20;3690867;-45
2023/12/19 09:56:59;;;;;;;;;284.25;224.50;;;;;0.31;100.00;100644.59;6283641;20;3701404;-49
2023/12/19 09:59:30;;;;;;;;;131.75;104.50;;;;;0.76;100.00;100641.72;6280285;20;4484737;-50
2023/12/19 10:01:59;;;;;;;;;65.33;52.00;;;;;0.36;100.00;100632.25;6311003;20;3614980;-46
2023/12/19 10:04:28;;;;;;;;;63.00;50.00;;;;;0.61;100.00;100633.00;6282562;20;2733816;-46
2023/12/19 10:07:01;;;;;;;;;64.50;49.00;;;;;0.11;100.00;100626.22;6313578;20;2855578;-49
2023/12/19 10:09:30;;;;;;;;;61.00;46.50;;;;;-0.09;100.00;100617.47;6283615;20;2857588;-49
2023/12/19 10:12:11;;;;;;;;;104.33;70.33;;;;;0.12;100.00;100613.88;6283353;20;3679426;-49
2023/12/19 10:14:39;;;;;;;;;46.00;30.00;;;;;0.00;100.00;100606.91;6316804;20;2867022;-47
2023/12/19 10:17:18;;;;;;;;;57.00;42.33;;;;;0.96;100.00;100610.75;6310627;20;2884671;-46
2023/12/19 10:19:47;;;;;;;;;61.00;49.00;;;;;0.73;100.00;100597.69;6313769;20;2851445;-48
2023/12/19 10:22:19;;;;;;;;;61.33;44.00;;;;;1.00;100.00;100599.28;6283493;20;2916117;-49
2023/12/19 10:24:48;;;;;;;;;69.50;49.50;;;;;0.41;100.00;100604.06;6314059;20;2855485;-48
2023/12/19 10:27:22;;;;;;;;;63.67;44.00;;;;;0.33;100.00;100597.94;6281796;20;3625664;-45
2023/12/19 10:29:53;;;;;;;;;78.33;59.33;;;;;0.11;100.00;100588.38;6309141;20;3640881;-48
2023/12/19 10:32:22;;;;;;;;;80.33;55.33;;;;;0.32;100.00;100587.41;6312203;20;3645049;-46
2023/12/19 10:34:58;;;;;;;;;91.00;62.67;;;;;0.28;100.00;100577.72;6314991;20;3666322;-48
2023/12/19 10:37:28;;;;;;;;;75.67;52.67;;;;;0.03;100.00;100569.94;6313185;20;3631491;-46
2023/12/19 10:40:14;;;;;;;;;57.50;45.00;;;;;-0.29;100.00;100573.56;6313677;20;2858703;-47
2023/12/19 10:42:45;;;;;;;;;65.00;44.33;;;;;0.00;100.00;100567.31;6283876;20;2884745;-51
2023/12/19 10:45:15;;;;;;;;;114.00;100.67;;;;;0.57;100.00;100567.84;6311615;20;3699404;-47
2023/12/19 10:47:45;;;;;;;;;79.67;59.33;;;;;0.44;100.00;100568.81;6282706;20;3636913;-47
2023/12/19 10:50:15;;;;;;;;;67.67;48.33;;;;;0.11;100.00;100562.84;6312141;20;2863894;-48
2023/12/19 10:52:45;;;;;;;;;77.50;52.00;;;;;-0.27;100.00;100558.56;6311207;20;2877460;-49
2023/12/19 10:55:21;;;;;;;;;68.00;46.00;;;;;0.02;100.00;100560.22;6280559;20;2883753;-51
2023/12/19 10:57:54;;;;;;;;;67.00;48.00;;;;;0.40;100.00;100556.53;6281272;20;2872214;-49